sensor_id;sensor_type;location;lat;lon;timestamp;P1;durP1;ratioP1;P2;durP2;ratioP2
36457;SDS011;22480;50.546;12.292;2023-09-08T00:00:00;10.50;;;8.35;;
36457;SDS011;22480;50.546;12.292;2023-09-08T00:02:26;10.07;;;8.27;;
36457;SDS011;22480;50.546;12.292;2023-09-08T00:04:53;10.75;;;8.20;;
36457;SDS011;22480;50.546;12.292;2023-09-08T00:07:18;9.55;;;8.38;;
36457;SDS011;22480;50.546;12.292;2023-09-08T00:09:44;11.57;;;7.93;;
36457;SDS011;22480;50.546;12.292;2023-09-08T00:12:10;9.85;;;8.80;;
36457;SDS011;22480;50.546;12.292;2023-09-08T00:14:36;9.43;;;8.30;;
36457;SDS011;22480;50.546;12.292;2023-09-08T00:17:01;12.30;;;9.10;;
36457;SDS011;22480;50.546;12.292;2023-09-08T00:19:27;9.40;;;8.05;;
36457;SDS011;22480;50.546;12.292;2023-09-08T00:21:53;9.90;;;8.10;;
36457;SDS011;22480;50.546;12.292;2023-09-08T00:24:19;13.27;;;8.55;;
36457;SDS011;22480;50.546;12.292;2023-09-08T00:26:45;9.38;;;8.45;;
36457;SDS011;22480;50.546;12.292;2023-09-08T00:29:10;11.95;;;9.55;;
36457;SDS011;22480;50.546;12.292;2023-09-08T00:31:36;11.43;;;9.55;;
36457;SDS011;22480;50.546;12.292;2023-09-08T00:34:02;9.25;;;8.25;;
36457;SDS011;22480;50.546;12.292;2023-09-08T00:36:28;10.95;;;8.55;;
36457;SDS011;22480;50.546;12.292;2023-09-08T00:38:54;9.65;;;8.63;;
36457;SDS011;22480;50.546;12.292;2023-09-08T00:41:19;10.20;;;8.43;;
36457;SDS011;22480;50.546;12.292;2023-09-08T00:43:45;10.38;;;8.57;;
36457;SDS011;22480;50.546;12.292;2023-09-08T00:46:11;10.00;;;7.72;;
36457;SDS011;22480;50.546;12.292;2023-09-08T00:48:37;12.75;;;8.13;;
36457;SDS011;22480;50.546;12.292;2023-09-08T00:51:03;9.95;;;8.95;;
36457;SDS011;22480;50.546;12.292;2023-09-08T00:53:32;11.88;;;9.30;;
36457;SDS011;22480;50.546;12.292;2023-09-08T00:55:58;11.25;;;8.93;;
36457;SDS011;22480;50.546;12.292;2023-09-08T00:58:25;11.63;;;7.45;;
36457;SDS011;22480;50.546;12.292;2023-09-08T01:00:51;8.73;;;7.82;;
36457;SDS011;22480;50.546;12.292;2023-09-08T01:03:16;9.20;;;8.23;;
36457;SDS011;22480;50.546;12.292;2023-09-08T01:05:43;12.40;;;8.05;;
36457;SDS011;22480;50.546;12.292;2023-09-08T01:08:12;10.67;;;9.57;;
36457;SDS011;22480;50.546;12.292;2023-09-08T01:10:38;11.98;;;9.20;;
36457;SDS011;22480;50.546;12.292;2023-09-08T01:13:07;11.52;;;8.93;;
36457;SDS011;22480;50.546;12.292;2023-09-08T01:15:33;11.35;;;9.38;;
36457;SDS011;22480;50.546;12.292;2023-09-08T01:17:59;9.60;;;8.60;;
36457;SDS011;22480;50.546;12.292;2023-09-08T01:20:35;12.55;;;9.52;;
36457;SDS011;22480;50.546;12.292;2023-09-08T01:23:21;11.77;;;9.23;;
36457;SDS011;22480;50.546;12.292;2023-09-08T01:25:59;10.50;;;9.27;;
36457;SDS011;22480;50.546;12.292;2023-09-08T01:28:35;9.80;;;8.40;;
36457;SDS011;22480;50.546;12.292;2023-09-08T01:31:02;11.77;;;9.27;;
36457;SDS011;22480;50.546;12.292;2023-09-08T01:33:29;10.77;;;8.70;;
36457;SDS011;22480;50.546;12.292;2023-09-08T01:35:55;10.27;;;8.30;;
36457;SDS011;22480;50.546;12.292;2023-09-08T01:38:21;10.05;;;8.00;;
36457;SDS011;22480;50.546;12.292;2023-09-08T01:40:48;8.73;;;7.85;;
36457;SDS011;22480;50.546;12.292;2023-09-08T01:43:14;10.90;;;8.90;;
36457;SDS011;22480;50.546;12.292;2023-09-08T01:45:40;10.13;;;8.65;;
36457;SDS011;22480;50.546;12.292;2023-09-08T01:48:05;9.48;;;8.40;;
36457;SDS011;22480;50.546;12.292;2023-09-08T01:50:31;9.15;;;8.20;;
36457;SDS011;22480;50.546;12.292;2023-09-08T01:52:57;9.65;;;7.93;;
36457;SDS011;22480;50.546;12.292;2023-09-08T01:55:23;10.52;;;9.43;;
36457;SDS011;22480;50.546;12.292;2023-09-08T01:57:49;10.57;;;9.00;;
36457;SDS011;22480;50.546;12.292;2023-09-08T02:00:16;12.27;;;9.45;;
36457;SDS011;22480;50.546;12.292;2023-09-08T02:02:42;11.57;;;9.75;;
36457;SDS011;22480;50.546;12.292;2023-09-08T02:05:08;12.65;;;9.65;;
36457;SDS011;22480;50.546;12.292;2023-09-08T02:07:34;11.73;;;9.60;;
36457;SDS011;22480;50.546;12.292;2023-09-08T02:10:00;11.18;;;9.30;;
36457;SDS011;22480;50.546;12.292;2023-09-08T02:12:26;9.95;;;8.95;;
36457;SDS011;22480;50.546;12.292;2023-09-08T02:14:54;14.35;;;9.40;;
36457;SDS011;22480;50.546;12.292;2023-09-08T02:17:19;12.27;;;10.00;;
36457;SDS011;22480;50.546;12.292;2023-09-08T02:19:45;12.00;;;10.65;;
36457;SDS011;22480;50.546;12.292;2023-09-08T02:22:11;13.88;;;10.68;;
36457;SDS011;22480;50.546;12.292;2023-09-08T02:24:36;13.05;;;10.38;;
36457;SDS011;22480;50.546;12.292;2023-09-08T02:27:02;13.00;;;10.45;;
36457;SDS011;22480;50.546;12.292;2023-09-08T02:29:29;10.85;;;9.23;;
36457;SDS011;22480;50.546;12.292;2023-09-08T02:31:56;10.35;;;9.25;;
36457;SDS011;22480;50.546;12.292;2023-09-08T02:34:22;11.43;;;10.10;;
36457;SDS011;22480;50.546;12.292;2023-09-08T02:36:48;15.05;;;10.20;;
36457;SDS011;22480;50.546;12.292;2023-09-08T02:39:16;11.07;;;9.02;;
36457;SDS011;22480;50.546;12.292;2023-09-08T02:41:42;11.27;;;9.50;;
36457;SDS011;22480;50.546;12.292;2023-09-08T02:44:08;10.98;;;9.07;;
36457;SDS011;22480;50.546;12.292;2023-09-08T02:46:34;10.95;;;8.27;;
36457;SDS011;22480;50.546;12.292;2023-09-08T02:48:59;10.75;;;8.70;;
36457;SDS011;22480;50.546;12.292;2023-09-08T02:51:26;12.32;;;9.30;;
36457;SDS011;22480;50.546;12.292;2023-09-08T02:53:52;9.15;;;8.15;;
36457;SDS011;22480;50.546;12.292;2023-09-08T02:56:18;9.38;;;7.90;;
36457;SDS011;22480;50.546;12.292;2023-09-08T02:58:44;8.60;;;7.70;;
36457;SDS011;22480;50.546;12.292;2023-09-08T03:01:13;11.75;;;8.05;;
36457;SDS011;22480;50.546;12.292;2023-09-08T03:03:42;9.10;;;8.13;;
36457;SDS011;22480;50.546;12.292;2023-09-08T03:06:09;9.40;;;8.40;;
36457;SDS011;22480;50.546;12.292;2023-09-08T03:08:36;10.40;;;7.82;;
36457;SDS011;22480;50.546;12.292;2023-09-08T03:11:03;10.52;;;8.13;;
36457;SDS011;22480;50.546;12.292;2023-09-08T03:13:31;11.93;;;8.95;;
36457;SDS011;22480;50.546;12.292;2023-09-08T03:16:07;9.23;;;8.30;;
36457;SDS011;22480;50.546;12.292;2023-09-08T03:18:34;10.75;;;8.93;;
36457;SDS011;22480;50.546;12.292;2023-09-08T03:21:04;12.57;;;9.60;;
36457;SDS011;22480;50.546;12.292;2023-09-08T03:23:38;11.30;;;8.60;;
36457;SDS011;22480;50.546;12.292;2023-09-08T03:26:05;11.00;;;9.40;;
36457;SDS011;22480;50.546;12.292;2023-09-08T03:28:32;13.38;;;9.55;;
36457;SDS011;22480;50.546;12.292;2023-09-08T03:30:59;11.18;;;8.77;;
36457;SDS011;22480;50.546;12.292;2023-09-08T03:33:25;11.93;;;9.60;;
36457;SDS011;22480;50.546;12.292;2023-09-08T03:35:51;12.40;;;9.82;;
36457;SDS011;22480;50.546;12.292;2023-09-08T03:38:17;12.73;;;10.57;;
36457;SDS011;22480;50.546;12.292;2023-09-08T03:40:43;13.57;;;10.80;;
36457;SDS011;22480;50.546;12.292;2023-09-08T03:43:09;13.98;;;11.05;;
36457;SDS011;22480;50.546;12.292;2023-09-08T03:45:35;13.18;;;11.32;;
36457;SDS011;22480;50.546;12.292;2023-09-08T03:48:01;15.70;;;11.90;;
36457;SDS011;22480;50.546;12.292;2023-09-08T03:50:27;13.05;;;10.52;;
36457;SDS011;22480;50.546;12.292;2023-09-08T03:52:53;13.75;;;10.98;;
36457;SDS011;22480;50.546;12.292;2023-09-08T03:55:19;15.10;;;11.00;;
36457;SDS011;22480;50.546;12.292;2023-09-08T03:57:45;12.65;;;11.32;;
36457;SDS011;22480;50.546;12.292;2023-09-08T04:00:11;11.65;;;10.45;;
36457;SDS011;22480;50.546;12.292;2023-09-08T04:02:41;13.48;;;11.52;;
36457;SDS011;22480;50.546;12.292;2023-09-08T04:05:07;13.40;;;11.15;;
36457;SDS011;22480;50.546;12.292;2023-09-08T04:07:36;14.40;;;12.30;;
36457;SDS011;22480;50.546;12.292;2023-09-08T04:10:02;14.32;;;11.88;;
36457;SDS011;22480;50.546;12.292;2023-09-08T04:12:28;16.05;;;11.90;;
36457;SDS011;22480;50.546;12.292;2023-09-08T04:14:54;15.73;;;10.73;;
36457;SDS011;22480;50.546;12.292;2023-09-08T04:17:20;13.13;;;10.48;;
36457;SDS011;22480;50.546;12.292;2023-09-08T04:19:45;14.85;;;10.90;;
36457;SDS011;22480;50.546;12.292;2023-09-08T04:22:11;12.93;;;11.52;;
36457;SDS011;22480;50.546;12.292;2023-09-08T04:24:37;12.40;;;11.07;;
36457;SDS011;22480;50.546;12.292;2023-09-08T04:27:03;13.60;;;11.60;;
36457;SDS011;22480;50.546;12.292;2023-09-08T04:29:29;12.20;;;10.65;;
36457;SDS011;22480;50.546;12.292;2023-09-08T04:31:57;12.52;;;10.88;;
36457;SDS011;22480;50.546;12.292;2023-09-08T04:34:23;13.07;;;10.50;;
36457;SDS011;22480;50.546;12.292;2023-09-08T04:36:49;12.57;;;10.50;;
36457;SDS011;22480;50.546;12.292;2023-09-08T04:39:15;15.32;;;11.18;;
36457;SDS011;22480;50.546;12.292;2023-09-08T04:41:41;12.90;;;11.50;;
36457;SDS011;22480;50.546;12.292;2023-09-08T04:44:06;12.82;;;10.88;;
36457;SDS011;22480;50.546;12.292;2023-09-08T04:46:33;13.15;;;11.27;;
36457;SDS011;22480;50.546;12.292;2023-09-08T04:49:00;15.07;;;12.18;;
36457;SDS011;22480;50.546;12.292;2023-09-08T04:51:26;16.48;;;13.30;;
36457;SDS011;22480;50.546;12.292;2023-09-08T04:53:52;17.58;;;13.50;;
36457;SDS011;22480;50.546;12.292;2023-09-08T04:56:18;15.98;;;13.45;;
36457;SDS011;22480;50.546;12.292;2023-09-08T04:58:43;15.05;;;12.77;;
36457;SDS011;22480;50.546;12.292;2023-09-08T05:01:10;16.40;;;12.10;;
36457;SDS011;22480;50.546;12.292;2023-09-08T05:03:36;13.38;;;11.00;;
36457;SDS011;22480;50.546;12.292;2023-09-08T05:06:03;15.20;;;12.00;;
36457;SDS011;22480;50.546;12.292;2023-09-08T05:08:29;15.05;;;12.73;;
36457;SDS011;22480;50.546;12.292;2023-09-08T05:10:55;15.63;;;11.85;;
36457;SDS011;22480;50.546;12.292;2023-09-08T05:13:21;13.27;;;11.32;;
36457;SDS011;22480;50.546;12.292;2023-09-08T05:15:52;14.90;;;13.32;;
36457;SDS011;22480;50.546;12.292;2023-09-08T05:18:26;16.30;;;12.65;;
36457;SDS011;22480;50.546;12.292;2023-09-08T05:20:53;14.27;;;12.10;;
36457;SDS011;22480;50.546;12.292;2023-09-08T05:23:19;14.73;;;12.20;;
36457;SDS011;22480;50.546;12.292;2023-09-08T05:25:45;17.80;;;12.68;;
36457;SDS011;22480;50.546;12.292;2023-09-08T05:28:11;18.27;;;13.80;;
36457;SDS011;22480;50.546;12.292;2023-09-08T05:30:37;14.27;;;12.15;;
36457;SDS011;22480;50.546;12.292;2023-09-08T05:33:03;17.25;;;13.90;;
36457;SDS011;22480;50.546;12.292;2023-09-08T05:35:29;15.00;;;11.55;;
36457;SDS011;22480;50.546;12.292;2023-09-08T05:37:54;11.35;;;9.60;;
36457;SDS011;22480;50.546;12.292;2023-09-08T05:40:20;8.68;;;7.78;;
36457;SDS011;22480;50.546;12.292;2023-09-08T05:42:49;9.00;;;7.65;;
36457;SDS011;22480;50.546;12.292;2023-09-08T05:45:15;6.47;;;5.65;;
36457;SDS011;22480;50.546;12.292;2023-09-08T05:47:42;9.55;;;6.85;;
36457;SDS011;22480;50.546;12.292;2023-09-08T05:50:08;12.55;;;7.03;;
36457;SDS011;22480;50.546;12.292;2023-09-08T05:52:34;10.20;;;6.18;;
36457;SDS011;22480;50.546;12.292;2023-09-08T05:55:00;7.20;;;6.03;;
36457;SDS011;22480;50.546;12.292;2023-09-08T05:57:26;8.40;;;5.45;;
36457;SDS011;22480;50.546;12.292;2023-09-08T05:59:53;7.13;;;5.03;;
36457;SDS011;22480;50.546;12.292;2023-09-08T06:02:19;6.22;;;4.85;;
36457;SDS011;22480;50.546;12.292;2023-09-08T06:04:45;8.45;;;5.10;;
36457;SDS011;22480;50.546;12.292;2023-09-08T06:07:11;6.07;;;4.57;;
36457;SDS011;22480;50.546;12.292;2023-09-08T06:09:37;5.32;;;4.82;;
36457;SDS011;22480;50.546;12.292;2023-09-08T06:12:03;5.78;;;4.60;;
36457;SDS011;22480;50.546;12.292;2023-09-08T06:14:29;7.35;;;5.30;;
36457;SDS011;22480;50.546;12.292;2023-09-08T06:16:55;5.53;;;4.60;;
36457;SDS011;22480;50.546;12.292;2023-09-08T06:19:21;6.65;;;4.45;;
36457;SDS011;22480;50.546;12.292;2023-09-08T06:21:47;6.93;;;4.60;;
36457;SDS011;22480;50.546;12.292;2023-09-08T06:24:12;5.75;;;4.75;;
36457;SDS011;22480;50.546;12.292;2023-09-08T06:26:38;6.68;;;4.50;;
36457;SDS011;22480;50.546;12.292;2023-09-08T06:29:05;5.03;;;4.10;;
36457;SDS011;22480;50.546;12.292;2023-09-08T06:31:31;6.32;;;4.63;;
36457;SDS011;22480;50.546;12.292;2023-09-08T06:33:56;5.43;;;4.93;;
36457;SDS011;22480;50.546;12.292;2023-09-08T06:36:22;7.32;;;5.07;;
36457;SDS011;22480;50.546;12.292;2023-09-08T06:38:51;4.47;;;4.07;;
36457;SDS011;22480;50.546;12.292;2023-09-08T06:41:18;5.40;;;4.35;;
36457;SDS011;22480;50.546;12.292;2023-09-08T06:43:44;7.85;;;4.20;;
36457;SDS011;22480;50.546;12.292;2023-09-08T06:46:15;5.05;;;4.10;;
36457;SDS011;22480;50.546;12.292;2023-09-08T06:48:42;5.82;;;3.60;;
36457;SDS011;22480;50.546;12.292;2023-09-08T06:51:08;5.00;;;3.85;;
36457;SDS011;22480;50.546;12.292;2023-09-08T06:53:36;5.80;;;4.45;;
36457;SDS011;22480;50.546;12.292;2023-09-08T06:56:01;8.25;;;4.90;;
36457;SDS011;22480;50.546;12.292;2023-09-08T06:58:28;7.90;;;5.40;;
36457;SDS011;22480;50.546;12.292;2023-09-08T07:00:55;8.75;;;5.10;;
36457;SDS011;22480;50.546;12.292;2023-09-08T07:03:21;5.88;;;5.20;;
36457;SDS011;22480;50.546;12.292;2023-09-08T07:05:49;6.57;;;4.63;;
36457;SDS011;22480;50.546;12.292;2023-09-08T07:08:16;6.50;;;4.72;;
36457;SDS011;22480;50.546;12.292;2023-09-08T07:10:43;6.82;;;4.35;;
36457;SDS011;22480;50.546;12.292;2023-09-08T07:13:09;5.68;;;4.10;;
36457;SDS011;22480;50.546;12.292;2023-09-08T07:15:36;12.65;;;4.10;;
36457;SDS011;22480;50.546;12.292;2023-09-08T07:18:02;6.20;;;4.07;;
36457;SDS011;22480;50.546;12.292;2023-09-08T07:20:28;6.00;;;4.07;;
36457;SDS011;22480;50.546;12.292;2023-09-08T07:22:54;3.88;;;3.47;;
36457;SDS011;22480;50.546;12.292;2023-09-08T07:25:20;4.57;;;3.78;;
36457;SDS011;22480;50.546;12.292;2023-09-08T07:27:45;6.35;;;3.25;;
36457;SDS011;22480;50.546;12.292;2023-09-08T07:30:11;4.85;;;3.80;;
36457;SDS011;22480;50.546;12.292;2023-09-08T07:32:38;5.35;;;4.25;;
36457;SDS011;22480;50.546;12.292;2023-09-08T07:35:04;8.23;;;4.15;;
36457;SDS011;22480;50.546;12.292;2023-09-08T07:37:30;8.23;;;3.70;;
36457;SDS011;22480;50.546;12.292;2023-09-08T07:39:56;10.35;;;4.13;;
36457;SDS011;22480;50.546;12.292;2023-09-08T07:42:23;10.32;;;5.03;;
36457;SDS011;22480;50.546;12.292;2023-09-08T07:44:50;15.52;;;5.05;;
36457;SDS011;22480;50.546;12.292;2023-09-08T07:47:16;7.65;;;4.07;;
36457;SDS011;22480;50.546;12.292;2023-09-08T07:49:45;10.77;;;4.45;;
36457;SDS011;22480;50.546;12.292;2023-09-08T07:52:11;5.32;;;4.20;;
36457;SDS011;22480;50.546;12.292;2023-09-08T07:54:37;5.03;;;3.88;;
36457;SDS011;22480;50.546;12.292;2023-09-08T07:57:03;6.05;;;4.10;;
36457;SDS011;22480;50.546;12.292;2023-09-08T07:59:29;6.65;;;4.50;;
36457;SDS011;22480;50.546;12.292;2023-09-08T08:01:55;4.43;;;3.65;;
36457;SDS011;22480;50.546;12.292;2023-09-08T08:04:21;5.85;;;3.83;;
36457;SDS011;22480;50.546;12.292;2023-09-08T08:06:46;5.60;;;3.72;;
36457;SDS011;22480;50.546;12.292;2023-09-08T08:09:13;4.15;;;3.75;;
36457;SDS011;22480;50.546;12.292;2023-09-08T08:11:40;8.20;;;3.80;;
36457;SDS011;22480;50.546;12.292;2023-09-08T08:14:05;6.22;;;3.65;;
36457;SDS011;22480;50.546;12.292;2023-09-08T08:16:31;6.38;;;3.83;;
36457;SDS011;22480;50.546;12.292;2023-09-08T08:18:57;6.57;;;4.03;;
36457;SDS011;22480;50.546;12.292;2023-09-08T08:21:22;4.70;;;3.45;;
36457;SDS011;22480;50.546;12.292;2023-09-08T08:23:49;5.47;;;3.70;;
36457;SDS011;22480;50.546;12.292;2023-09-08T08:26:15;5.82;;;3.70;;
36457;SDS011;22480;50.546;12.292;2023-09-08T08:28:41;7.35;;;3.63;;
36457;SDS011;22480;50.546;12.292;2023-09-08T08:31:07;4.75;;;3.75;;
36457;SDS011;22480;50.546;12.292;2023-09-08T08:33:32;4.72;;;3.70;;
36457;SDS011;22480;50.546;12.292;2023-09-08T08:35:58;5.40;;;3.50;;
36457;SDS011;22480;50.546;12.292;2023-09-08T08:38:24;4.57;;;3.10;;
36457;SDS011;22480;50.546;12.292;2023-09-08T08:40:50;4.47;;;3.40;;
36457;SDS011;22480;50.546;12.292;2023-09-08T08:43:16;5.05;;;3.65;;
36457;SDS011;22480;50.546;12.292;2023-09-08T08:45:42;4.82;;;3.60;;
36457;SDS011;22480;50.546;12.292;2023-09-08T08:48:08;3.75;;;3.33;;
36457;SDS011;22480;50.546;12.292;2023-09-08T08:50:35;4.50;;;3.38;;
36457;SDS011;22480;50.546;12.292;2023-09-08T08:53:02;4.10;;;3.33;;
36457;SDS011;22480;50.546;12.292;2023-09-08T08:55:29;4.70;;;3.60;;
36457;SDS011;22480;50.546;12.292;2023-09-08T08:58:05;3.53;;;3.20;;
36457;SDS011;22480;50.546;12.292;2023-09-08T09:00:33;5.47;;;2.92;;
36457;SDS011;22480;50.546;12.292;2023-09-08T09:03:01;3.47;;;2.78;;
36457;SDS011;22480;50.546;12.292;2023-09-08T09:05:29;6.38;;;3.00;;
36457;SDS011;22480;50.546;12.292;2023-09-08T09:07:57;3.45;;;3.13;;
36457;SDS011;22480;50.546;12.292;2023-09-08T09:10:23;7.45;;;3.10;;
36457;SDS011;22480;50.546;12.292;2023-09-08T09:12:49;6.45;;;3.13;;
36457;SDS011;22480;50.546;12.292;2023-09-08T09:15:15;5.65;;;3.10;;
36457;SDS011;22480;50.546;12.292;2023-09-08T09:17:41;5.75;;;3.20;;
36457;SDS011;22480;50.546;12.292;2023-09-08T09:22:40;7.10;;;3.30;;
36457;SDS011;22480;50.546;12.292;2023-09-08T09:25:06;3.78;;;2.97;;
36457;SDS011;22480;50.546;12.292;2023-09-08T09:27:32;5.47;;;3.20;;
36457;SDS011;22480;50.546;12.292;2023-09-08T09:30:02;4.70;;;2.97;;
36457;SDS011;22480;50.546;12.292;2023-09-08T09:32:28;3.40;;;3.00;;
36457;SDS011;22480;50.546;12.292;2023-09-08T09:34:57;5.90;;;3.03;;
36457;SDS011;22480;50.546;12.292;2023-09-08T09:37:26;7.80;;;3.00;;
36457;SDS011;22480;50.546;12.292;2023-09-08T09:39:53;3.13;;;2.83;;
36457;SDS011;22480;50.546;12.292;2023-09-08T09:42:20;3.58;;;3.00;;
36457;SDS011;22480;50.546;12.292;2023-09-08T09:44:47;5.00;;;3.03;;
36457;SDS011;22480;50.546;12.292;2023-09-08T09:47:13;3.63;;;2.65;;
36457;SDS011;22480;50.546;12.292;2023-09-08T09:49:44;3.00;;;2.70;;
36457;SDS011;22480;50.546;12.292;2023-09-08T09:52:13;6.30;;;3.35;;
36457;SDS011;22480;50.546;12.292;2023-09-08T09:54:40;5.50;;;3.10;;
36457;SDS011;22480;50.546;12.292;2023-09-08T09:57:08;3.90;;;2.92;;
36457;SDS011;22480;50.546;12.292;2023-09-08T09:59:38;3.72;;;2.90;;
36457;SDS011;22480;50.546;12.292;2023-09-08T10:07:03;6.53;;;2.80;;
36457;SDS011;22480;50.546;12.292;2023-09-08T10:09:29;5.45;;;3.03;;
36457;SDS011;22480;50.546;12.292;2023-09-08T10:11:54;5.20;;;2.88;;
36457;SDS011;22480;50.546;12.292;2023-09-08T10:14:24;3.85;;;3.00;;
36457;SDS011;22480;50.546;12.292;2023-09-08T10:16:53;3.65;;;3.05;;
36457;SDS011;22480;50.546;12.292;2023-09-08T10:19:22;4.60;;;2.97;;
36457;SDS011;22480;50.546;12.292;2023-09-08T10:21:48;7.78;;;2.95;;
36457;SDS011;22480;50.546;12.292;2023-09-08T10:24:26;3.67;;;2.87;;
36457;SDS011;22480;50.546;12.292;2023-09-08T10:26:58;4.18;;;2.83;;
36457;SDS011;22480;50.546;12.292;2023-09-08T10:29:29;4.93;;;3.45;;
36457;SDS011;22480;50.546;12.292;2023-09-08T10:31:56;5.30;;;2.80;;
36457;SDS011;22480;50.546;12.292;2023-09-08T10:34:23;6.05;;;3.17;;
36457;SDS011;22480;50.546;12.292;2023-09-08T10:36:50;2.85;;;2.63;;
36457;SDS011;22480;50.546;12.292;2023-09-08T10:39:27;5.35;;;3.00;;
36457;SDS011;22480;50.546;12.292;2023-09-08T10:47:23;4.85;;;2.85;;
36457;SDS011;22480;50.546;12.292;2023-09-08T10:49:50;4.50;;;3.08;;
36457;SDS011;22480;50.546;12.292;2023-09-08T10:52:23;3.53;;;2.80;;
36457;SDS011;22480;50.546;12.292;2023-09-08T10:54:51;3.30;;;3.00;;
36457;SDS011;22480;50.546;12.292;2023-09-08T10:57:24;3.83;;;2.80;;
36457;SDS011;22480;50.546;12.292;2023-09-08T10:59:51;3.10;;;2.70;;
36457;SDS011;22480;50.546;12.292;2023-09-08T11:02:33;3.38;;;2.92;;
36457;SDS011;22480;50.546;12.292;2023-09-08T11:05:11;4.30;;;3.05;;
36457;SDS011;22480;50.546;12.292;2023-09-08T11:07:39;3.50;;;2.53;;
36457;SDS011;22480;50.546;12.292;2023-09-08T11:10:06;3.50;;;2.65;;
36457;SDS011;22480;50.546;12.292;2023-09-08T11:12:33;4.03;;;2.30;;
36457;SDS011;22480;50.546;12.292;2023-09-08T11:14:59;4.40;;;2.55;;
36457;SDS011;22480;50.546;12.292;2023-09-08T11:17:29;3.67;;;2.45;;
36457;SDS011;22480;50.546;12.292;2023-09-08T11:19:56;3.33;;;2.58;;
36457;SDS011;22480;50.546;12.292;2023-09-08T11:22:23;3.65;;;2.55;;
36457;SDS011;22480;50.546;12.292;2023-09-08T11:24:50;2.60;;;2.40;;
36457;SDS011;22480;50.546;12.292;2023-09-08T11:27:16;3.60;;;2.53;;
36457;SDS011;22480;50.546;12.292;2023-09-08T11:29:43;3.30;;;2.70;;
36457;SDS011;22480;50.546;12.292;2023-09-08T11:32:10;4.07;;;3.00;;
36457;SDS011;22480;50.546;12.292;2023-09-08T11:34:36;3.55;;;2.65;;
36457;SDS011;22480;50.546;12.292;2023-09-08T11:37:09;3.50;;;2.80;;
36457;SDS011;22480;50.546;12.292;2023-09-08T11:39:37;5.22;;;2.75;;
36457;SDS011;22480;50.546;12.292;2023-09-08T11:42:03;3.67;;;2.90;;
36457;SDS011;22480;50.546;12.292;2023-09-08T11:44:29;4.20;;;2.80;;
36457;SDS011;22480;50.546;12.292;2023-09-08T11:46:55;3.40;;;2.78;;
36457;SDS011;22480;50.546;12.292;2023-09-08T11:49:22;3.97;;;2.97;;
36457;SDS011;22480;50.546;12.292;2023-09-08T11:51:49;3.92;;;2.45;;
36457;SDS011;22480;50.546;12.292;2023-09-08T11:54:14;6.70;;;2.67;;
36457;SDS011;22480;50.546;12.292;2023-09-08T11:56:41;6.82;;;2.75;;
36457;SDS011;22480;50.546;12.292;2023-09-08T11:59:07;7.10;;;2.58;;
36457;SDS011;22480;50.546;12.292;2023-09-08T12:01:34;2.80;;;2.53;;
36457;SDS011;22480;50.546;12.292;2023-09-08T12:04:00;2.88;;;2.53;;
36457;SDS011;22480;50.546;12.292;2023-09-08T12:06:26;4.65;;;2.70;;
36457;SDS011;22480;50.546;12.292;2023-09-08T12:08:53;5.28;;;2.58;;
36457;SDS011;22480;50.546;12.292;2023-09-08T12:11:20;4.53;;;2.72;;
36457;SDS011;22480;50.546;12.292;2023-09-08T12:13:46;2.50;;;2.30;;
36457;SDS011;22480;50.546;12.292;2023-09-08T12:16:21;3.25;;;2.58;;
36457;SDS011;22480;50.546;12.292;2023-09-08T12:18:50;5.45;;;2.72;;
36457;SDS011;22480;50.546;12.292;2023-09-08T12:21:16;5.18;;;2.75;;
36457;SDS011;22480;50.546;12.292;2023-09-08T12:23:51;4.13;;;2.75;;
36457;SDS011;22480;50.546;12.292;2023-09-08T12:26:18;3.13;;;2.65;;
36457;SDS011;22480;50.546;12.292;2023-09-08T12:28:44;3.25;;;2.88;;
36457;SDS011;22480;50.546;12.292;2023-09-08T12:31:11;4.55;;;3.00;;
36457;SDS011;22480;50.546;12.292;2023-09-08T12:33:38;3.72;;;2.78;;
36457;SDS011;22480;50.546;12.292;2023-09-08T12:36:14;6.97;;;2.78;;
36457;SDS011;22480;50.546;12.292;2023-09-08T12:38:41;3.83;;;2.65;;
36457;SDS011;22480;50.546;12.292;2023-09-08T12:41:12;3.40;;;2.50;;
36457;SDS011;22480;50.546;12.292;2023-09-08T12:43:37;3.15;;;2.30;;
36457;SDS011;22480;50.546;12.292;2023-09-08T12:46:03;3.90;;;2.75;;
36457;SDS011;22480;50.546;12.292;2023-09-08T12:48:29;4.30;;;2.63;;
36457;SDS011;22480;50.546;12.292;2023-09-08T12:50:54;3.58;;;2.25;;
36457;SDS011;22480;50.546;12.292;2023-09-08T12:53:20;4.38;;;2.50;;
36457;SDS011;22480;50.546;12.292;2023-09-08T12:55:48;4.85;;;2.92;;
36457;SDS011;22480;50.546;12.292;2023-09-08T12:58:14;4.45;;;2.20;;
36457;SDS011;22480;50.546;12.292;2023-09-08T13:00:40;5.32;;;2.90;;
36457;SDS011;22480;50.546;12.292;2023-09-08T13:03:07;3.42;;;2.30;;
36457;SDS011;22480;50.546;12.292;2023-09-08T13:05:33;4.35;;;2.20;;
36457;SDS011;22480;50.546;12.292;2023-09-08T13:07:59;3.80;;;2.50;;
36457;SDS011;22480;50.546;12.292;2023-09-08T13:10:24;4.45;;;2.50;;
36457;SDS011;22480;50.546;12.292;2023-09-08T13:12:50;4.70;;;2.35;;
36457;SDS011;22480;50.546;12.292;2023-09-08T13:15:16;5.03;;;2.55;;
36457;SDS011;22480;50.546;12.292;2023-09-08T13:17:42;3.25;;;2.42;;
36457;SDS011;22480;50.546;12.292;2023-09-08T13:20:08;4.15;;;2.50;;
36457;SDS011;22480;50.546;12.292;2023-09-08T13:22:34;4.78;;;2.53;;
36457;SDS011;22480;50.546;12.292;2023-09-08T13:25:00;2.92;;;2.40;;
36457;SDS011;22480;50.546;12.292;2023-09-08T13:27:25;6.20;;;2.30;;
36457;SDS011;22480;50.546;12.292;2023-09-08T13:29:53;2.90;;;2.45;;
36457;SDS011;22480;50.546;12.292;2023-09-08T13:32:19;2.88;;;2.45;;
36457;SDS011;22480;50.546;12.292;2023-09-08T13:34:47;2.65;;;2.33;;
36457;SDS011;22480;50.546;12.292;2023-09-08T13:37:13;2.70;;;2.50;;
36457;SDS011;22480;50.546;12.292;2023-09-08T13:39:40;3.05;;;2.08;;
36457;SDS011;22480;50.546;12.292;2023-09-08T13:42:05;2.78;;;2.58;;
36457;SDS011;22480;50.546;12.292;2023-09-08T13:44:31;3.83;;;2.15;;
36457;SDS011;22480;50.546;12.292;2023-09-08T13:46:57;3.70;;;3.00;;
36457;SDS011;22480;50.546;12.292;2023-09-08T13:49:23;2.63;;;2.42;;
36457;SDS011;22480;50.546;12.292;2023-09-08T13:51:48;4.65;;;2.92;;
36457;SDS011;22480;50.546;12.292;2023-09-08T13:54:17;5.13;;;2.53;;
36457;SDS011;22480;50.546;12.292;2023-09-08T13:56:43;5.05;;;2.80;;
36457;SDS011;22480;50.546;12.292;2023-09-08T13:59:08;3.58;;;2.65;;
36457;SDS011;22480;50.546;12.292;2023-09-08T14:01:35;3.83;;;2.50;;
36457;SDS011;22480;50.546;12.292;2023-09-08T14:04:02;4.47;;;2.63;;
36457;SDS011;22480;50.546;12.292;2023-09-08T14:06:28;3.85;;;3.25;;
36457;SDS011;22480;50.546;12.292;2023-09-08T14:08:54;4.13;;;2.40;;
36457;SDS011;22480;50.546;12.292;2023-09-08T14:11:21;3.33;;;2.53;;
36457;SDS011;22480;50.546;12.292;2023-09-08T14:13:47;3.30;;;2.60;;
36457;SDS011;22480;50.546;12.292;2023-09-08T14:16:13;5.07;;;2.67;;
36457;SDS011;22480;50.546;12.292;2023-09-08T14:18:39;3.08;;;2.80;;
36457;SDS011;22480;50.546;12.292;2023-09-08T14:21:05;5.82;;;3.20;;
36457;SDS011;22480;50.546;12.292;2023-09-08T14:23:32;4.63;;;2.95;;
36457;SDS011;22480;50.546;12.292;2023-09-08T14:26:02;3.22;;;2.60;;
36457;SDS011;22480;50.546;12.292;2023-09-08T14:28:28;4.47;;;3.17;;
36457;SDS011;22480;50.546;12.292;2023-09-08T14:30:57;4.45;;;2.97;;
36457;SDS011;22480;50.546;12.292;2023-09-08T14:33:23;4.78;;;2.60;;
36457;SDS011;22480;50.546;12.292;2023-09-08T14:35:49;4.50;;;2.65;;
36457;SDS011;22480;50.546;12.292;2023-09-08T14:38:19;4.90;;;2.80;;